sensor_id;sensor_type;location;lat;lon;timestamp;pressure;altitude;pressure_sealevel;temperature;humidity
6393;BME280;3229;42.674;23.282;2023-05-24T00:01:06;94445.72;;;17.19;59.74
6393;BME280;3229;42.674;23.282;2023-05-24T00:03:33;94446.69;;;17.18;59.81
6393;BME280;3229;42.674;23.282;2023-05-24T00:06:03;94447.06;;;17.15;59.98
6393;BME280;3229;42.674;23.282;2023-05-24T00:08:32;94443.84;;;17.13;60.16
6393;BME280;3229;42.674;23.282;2023-05-24T00:11:00;94441.22;;;17.07;60.04
6393;BME280;3229;42.674;23.282;2023-05-24T00:13:26;94446.19;;;17.08;60.02
6393;BME280;3229;42.674;23.282;2023-05-24T00:15:53;94449.78;;;17.07;60.00
6393;BME280;3229;42.674;23.282;2023-05-24T00:18:20;94446.75;;;17.03;60.36
6393;BME280;3229;42.674;23.282;2023-05-24T00:20:47;94445.94;;;17.03;60.25
6393;BME280;3229;42.674;23.282;2023-05-24T00:23:13;94445.31;;;17.01;60.15
6393;BME280;3229;42.674;23.282;2023-05-24T00:25:41;94427.97;;;16.95;60.43
6393;BME280;3229;42.674;23.282;2023-05-24T00:28:08;94442.13;;;16.99;60.39
6393;BME280;3229;42.674;23.282;2023-05-24T00:30:35;94443.28;;;16.96;60.48
6393;BME280;3229;42.674;23.282;2023-05-24T00:33:02;94441.25;;;16.92;60.48
6393;BME280;3229;42.674;23.282;2023-05-24T00:35:29;94423.91;;;16.86;60.33
6393;BME280;3229;42.674;23.282;2023-05-24T00:37:55;94437.88;;;16.91;60.43
6393;BME280;3229;42.674;23.282;2023-05-24T00:40:22;94433.88;;;16.89;60.54
6393;BME280;3229;42.674;23.282;2023-05-24T00:42:50;94439.22;;;16.87;60.63
6393;BME280;3229;42.674;23.282;2023-05-24T00:45:17;94432.66;;;16.85;60.77
6393;BME280;3229;42.674;23.282;2023-05-24T00:47:45;94433.00;;;16.82;60.85
6393;BME280;3229;42.674;23.282;2023-05-24T00:50:12;94428.03;;;16.80;60.70
6393;BME280;3229;42.674;23.282;2023-05-24T00:52:41;94430.97;;;16.77;60.78
6393;BME280;3229;42.674;23.282;2023-05-24T00:55:09;94435.50;;;16.75;60.94
6393;BME280;3229;42.674;23.282;2023-05-24T00:57:36;94435.69;;;16.73;60.91
6393;BME280;3229;42.674;23.282;2023-05-24T01:00:05;94438.59;;;16.70;61.12
6393;BME280;3229;42.674;23.282;2023-05-24T01:02:33;94439.78;;;16.68;61.00
6393;BME280;3229;42.674;23.282;2023-05-24T01:05:00;94433.19;;;16.65;61.08
6393;BME280;3229;42.674;23.282;2023-05-24T01:07:32;94439.16;;;16.66;61.17
6393;BME280;3229;42.674;23.282;2023-05-24T01:10:08;94441.13;;;16.64;61.30
6393;BME280;3229;42.674;23.282;2023-05-24T01:12:47;94439.69;;;16.61;61.36
6393;BME280;3229;42.674;23.282;2023-05-24T01:15:23;94436.84;;;16.56;61.49
6393;BME280;3229;42.674;23.282;2023-05-24T01:17:54;94443.16;;;16.53;61.53
6393;BME280;3229;42.674;23.282;2023-05-24T01:20:28;94418.13;;;16.33;61.59
6393;BME280;3229;42.674;23.282;2023-05-24T01:23:23;94445.13;;;16.51;61.74
6393;BME280;3229;42.674;23.282;2023-05-24T01:26:16;94448.72;;;16.50;61.82
6393;BME280;3229;42.674;23.282;2023-05-24T01:28:47;94423.09;;;16.34;61.75
6393;BME280;3229;42.674;23.282;2023-05-24T01:31:15;94447.47;;;16.46;61.77
6393;BME280;3229;42.674;23.282;2023-05-24T01:33:43;94461.34;;;16.45;61.86
6393;BME280;3229;42.674;23.282;2023-05-24T01:36:10;94451.19;;;16.44;61.89
6393;BME280;3229;42.674;23.282;2023-05-24T01:38:38;94414.72;;;16.17;61.89
6393;BME280;3229;42.674;23.282;2023-05-24T01:41:13;94453.97;;;16.42;61.84
6393;BME280;3229;42.674;23.282;2023-05-24T01:43:51;94422.13;;;16.20;62.07
6393;BME280;3229;42.674;23.282;2023-05-24T01:46:34;94456.09;;;16.39;62.18
6393;BME280;3229;42.674;23.282;2023-05-24T01:49:08;94446.13;;;16.36;62.26
6393;BME280;3229;42.674;23.282;2023-05-24T01:51:40;94450.88;;;16.32;62.18
6393;BME280;3229;42.674;23.282;2023-05-24T01:54:11;94448.28;;;16.32;62.22
6393;BME280;3229;42.674;23.282;2023-05-24T01:56:40;94452.81;;;16.30;62.52
6393;BME280;3229;42.674;23.282;2023-05-24T01:59:10;94442.69;;;16.28;62.54
6393;BME280;3229;42.674;23.282;2023-05-24T02:01:38;94440.25;;;16.27;62.53
6393;BME280;3229;42.674;23.282;2023-05-24T02:04:06;94439.81;;;16.23;62.58
6393;BME280;3229;42.674;23.282;2023-05-24T02:06:33;94427.28;;;16.20;62.69
6393;BME280;3229;42.674;23.282;2023-05-24T02:09:00;94441.78;;;16.21;62.82
6393;BME280;3229;42.674;23.282;2023-05-24T02:11:27;94432.44;;;16.20;62.81
6393;BME280;3229;42.674;23.282;2023-05-24T02:13:53;94434.22;;;16.20;62.85
6393;BME280;3229;42.674;23.282;2023-05-24T02:16:22;94430.22;;;16.17;62.90
6393;BME280;3229;42.674;23.282;2023-05-24T02:18:49;94433.59;;;16.18;62.80
6393;BME280;3229;42.674;23.282;2023-05-24T02:21:16;94432.00;;;16.17;62.87
6393;BME280;3229;42.674;23.282;2023-05-24T02:23:42;94431.34;;;16.15;62.83
6393;BME280;3229;42.674;23.282;2023-05-24T02:26:09;94430.56;;;16.14;62.88
6393;BME280;3229;42.674;23.282;2023-05-24T02:28:37;94430.75;;;16.13;63.16
6393;BME280;3229;42.674;23.282;2023-05-24T02:31:04;94424.78;;;16.12;63.03
6393;BME280;3229;42.674;23.282;2023-05-24T02:33:32;94416.94;;;16.05;63.14
6393;BME280;3229;42.674;23.282;2023-05-24T02:35:59;94420.97;;;16.08;63.28
6393;BME280;3229;42.674;23.282;2023-05-24T02:38:26;94426.31;;;16.07;63.33
6393;BME280;3229;42.674;23.282;2023-05-24T02:40:53;94433.22;;;16.06;63.27
6393;BME280;3229;42.674;23.282;2023-05-24T02:43:19;94433.41;;;16.04;63.45
6393;BME280;3229;42.674;23.282;2023-05-24T02:45:46;94432.81;;;16.02;63.44
6393;BME280;3229;42.674;23.282;2023-05-24T02:48:13;94435.38;;;16.02;63.52
6393;BME280;3229;42.674;23.282;2023-05-24T02:50:41;94431.19;;;16.01;63.50
6393;BME280;3229;42.674;23.282;2023-05-24T02:53:08;94438.91;;;16.01;63.34
6393;BME280;3229;42.674;23.282;2023-05-24T02:55:35;94432.97;;;16.01;63.40
6393;BME280;3229;42.674;23.282;2023-05-24T02:58:02;94436.34;;;16.01;63.46
6393;BME280;3229;42.674;23.282;2023-05-24T03:00:28;94436.34;;;16.01;63.60
6393;BME280;3229;42.674;23.282;2023-05-24T03:02:55;94436.34;;;16.01;63.55
6393;BME280;3229;42.674;23.282;2023-05-24T03:05:26;94444.91;;;16.02;63.57
6393;BME280;3229;42.674;23.282;2023-05-24T03:07:54;94447.28;;;16.03;63.52
6393;BME280;3229;42.674;23.282;2023-05-24T03:10:22;94454.38;;;16.01;63.53
6393;BME280;3229;42.674;23.282;2023-05-24T03:12:49;94457.41;;;16.05;63.74
6393;BME280;3229;42.674;23.282;2023-05-24T03:15:16;94458.88;;;16.08;63.61
6393;BME280;3229;42.674;23.282;2023-05-24T03:17:43;94453.06;;;16.05;63.68
6393;BME280;3229;42.674;23.282;2023-05-24T03:20:10;94457.34;;;16.13;63.64
6393;BME280;3229;42.674;23.282;2023-05-24T03:22:37;94454.41;;;16.16;63.48
6393;BME280;3229;42.674;23.282;2023-05-24T03:25:06;94456.47;;;16.21;63.41
6393;BME280;3229;42.674;23.282;2023-05-24T03:27:34;94446.50;;;16.18;63.58
6393;BME280;3229;42.674;23.282;2023-05-24T03:30:01;94453.78;;;16.29;63.53
6393;BME280;3229;42.674;23.282;2023-05-24T03:32:30;94455.59;;;16.28;63.34
6393;BME280;3229;42.674;23.282;2023-05-24T03:34:57;94457.25;;;16.36;63.16
6393;BME280;3229;42.674;23.282;2023-05-24T03:37:25;94458.34;;;16.42;63.21
6393;BME280;3229;42.674;23.282;2023-05-24T03:39:52;94466.94;;;16.49;63.23
6393;BME280;3229;42.674;23.282;2023-05-24T03:42:20;94463.22;;;16.51;62.85
6393;BME280;3229;42.674;23.282;2023-05-24T03:44:47;94472.25;;;16.62;62.95
6393;BME280;3229;42.674;23.282;2023-05-24T03:47:14;94464.00;;;16.67;62.98
6393;BME280;3229;42.674;23.282;2023-05-24T03:49:41;94460.88;;;16.71;62.72
6393;BME280;3229;42.674;23.282;2023-05-24T03:52:07;94465.94;;;16.79;62.60
6393;BME280;3229;42.674;23.282;2023-05-24T03:54:34;94469.25;;;16.88;62.51
6393;BME280;3229;42.674;23.282;2023-05-24T03:57:01;94461.75;;;16.93;62.40
6393;BME280;3229;42.674;23.282;2023-05-24T03:59:29;94437.63;;;16.86;62.07
6393;BME280;3229;42.674;23.282;2023-05-24T04:01:56;94466.66;;;17.10;62.01
6393;BME280;3229;42.674;23.282;2023-05-24T04:04:23;94470.78;;;17.19;61.71
6393;BME280;3229;42.674;23.282;2023-05-24T04:06:50;94468.22;;;17.25;61.77
6393;BME280;3229;42.674;23.282;2023-05-24T04:09:18;94474.09;;;17.34;61.45
6393;BME280;3229;42.674;23.282;2023-05-24T04:11:45;94473.97;;;17.42;61.37
6393;BME280;3229;42.674;23.282;2023-05-24T04:14:11;94472.84;;;17.51;61.27
6393;BME280;3229;42.674;23.282;2023-05-24T04:16:40;94469.94;;;17.61;60.97
6393;BME280;3229;42.674;23.282;2023-05-24T04:19:09;94477.75;;;17.68;60.82
6393;BME280;3229;42.674;23.282;2023-05-24T04:21:36;94480.06;;;17.77;60.56
6393;BME280;3229;42.674;23.282;2023-05-24T04:24:04;94475.53;;;17.86;60.47
6393;BME280;3229;42.674;23.282;2023-05-24T04:26:31;94467.63;;;17.88;60.18
6393;BME280;3229;42.674;23.282;2023-05-24T04:28:58;94473.69;;;18.01;60.03
6393;BME280;3229;42.674;23.282;2023-05-24T04:31:26;94479.31;;;18.12;59.70
6393;BME280;3229;42.674;23.282;2023-05-24T04:33:56;94479.75;;;18.22;59.48
6393;BME280;3229;42.674;23.282;2023-05-24T04:36:23;94452.44;;;18.13;59.49
6393;BME280;3229;42.674;23.282;2023-05-24T04:38:51;94476.88;;;18.38;59.01
6393;BME280;3229;42.674;23.282;2023-05-24T04:41:20;94490.53;;;18.53;58.92
6393;BME280;3229;42.674;23.282;2023-05-24T04:43:48;94489.38;;;18.63;58.92
6393;BME280;3229;42.674;23.282;2023-05-24T04:46:15;94477.78;;;18.59;58.56
6393;BME280;3229;42.674;23.282;2023-05-24T04:48:42;94501.44;;;18.84;58.52
6393;BME280;3229;42.674;23.282;2023-05-24T04:51:10;94491.09;;;18.90;58.39
6393;BME280;3229;42.674;23.282;2023-05-24T04:53:37;94504.91;;;19.04;58.23
6393;BME280;3229;42.674;23.282;2023-05-24T04:56:04;94493.56;;;19.12;57.95
6393;BME280;3229;42.674;23.282;2023-05-24T04:58:30;94496.19;;;19.25;57.90
6393;BME280;3229;42.674;23.282;2023-05-24T05:00:57;94496.44;;;19.37;57.76
6393;BME280;3229;42.674;23.282;2023-05-24T05:03:24;94501.44;;;19.51;57.54
6393;BME280;3229;42.674;23.282;2023-05-24T05:05:51;94509.69;;;19.75;57.31
6393;BME280;3229;42.674;23.282;2023-05-24T05:08:19;94484.13;;;20.05;57.12
6393;BME280;3229;42.674;23.282;2023-05-24T05:10:46;94499.19;;;20.74;57.02
6393;BME280;3229;42.674;23.282;2023-05-24T05:13:12;94505.84;;;21.53;56.54
6393;BME280;3229;42.674;23.282;2023-05-24T05:15:39;94507.66;;;22.35;55.87
6393;BME280;3229;42.674;23.282;2023-05-24T05:18:06;94507.53;;;23.21;55.05
6393;BME280;3229;42.674;23.282;2023-05-24T05:20:33;94508.38;;;24.17;54.08
6393;BME280;3229;42.674;23.282;2023-05-24T05:22:59;94505.25;;;25.14;53.28
6393;BME280;3229;42.674;23.282;2023-05-24T05:25:28;94524.81;;;26.14;51.90
6393;BME280;3229;42.674;23.282;2023-05-24T05:27:55;94525.19;;;27.12;51.21
6393;BME280;3229;42.674;23.282;2023-05-24T05:30:22;94506.94;;;28.04;49.88
6393;BME280;3229;42.674;23.282;2023-05-24T05:32:48;94510.47;;;28.99;48.44
6393;BME280;3229;42.674;23.282;2023-05-24T05:35:15;94522.59;;;29.98;47.61
6393;BME280;3229;42.674;23.282;2023-05-24T05:37:42;94525.72;;;30.87;46.20
6393;BME280;3229;42.674;23.282;2023-05-24T05:40:10;94528.78;;;31.75;45.31
6393;BME280;3229;42.674;23.282;2023-05-24T05:42:38;94522.31;;;32.59;44.49
6393;BME280;3229;42.674;23.282;2023-05-24T05:45:06;94527.00;;;33.39;43.26
6393;BME280;3229;42.674;23.282;2023-05-24T05:47:33;94527.53;;;34.17;42.24
6393;BME280;3229;42.674;23.282;2023-05-24T05:50:00;94534.78;;;34.90;41.56
6393;BME280;3229;42.674;23.282;2023-05-24T05:52:27;94524.28;;;35.54;40.81
6393;BME280;3229;42.674;23.282;2023-05-24T05:54:53;94532.09;;;35.96;39.28
6393;BME280;3229;42.674;23.282;2023-05-24T05:57:20;94535.22;;;35.75;38.60
6393;BME280;3229;42.674;23.282;2023-05-24T05:59:49;94537.06;;;35.38;38.42
6393;BME280;3229;42.674;23.282;2023-05-24T06:02:17;94511.34;;;34.92;38.99
6393;BME280;3229;42.674;23.282;2023-05-24T06:04:44;94543.66;;;34.86;39.29
6393;BME280;3229;42.674;23.282;2023-05-24T06:07:11;94528.75;;;34.57;39.52
6393;BME280;3229;42.674;23.282;2023-05-24T06:09:38;94540.03;;;34.49;39.36
6393;BME280;3229;42.674;23.282;2023-05-24T06:12:05;94544.72;;;34.38;39.57
6393;BME280;3229;42.674;23.282;2023-05-24T06:14:31;94549.13;;;34.29;39.98
6393;BME280;3229;42.674;23.282;2023-05-24T06:17:00;94550.03;;;34.19;40.09
6393;BME280;3229;42.674;23.282;2023-05-24T06:19:27;94549.25;;;34.19;40.23
6393;BME280;3229;42.674;23.282;2023-05-24T06:21:54;94549.25;;;34.19;40.43
6393;BME280;3229;42.674;23.282;2023-05-24T06:24:20;94544.75;;;34.19;40.66
6393;BME280;3229;42.674;23.282;2023-05-24T06:26:49;94539.44;;;34.19;40.61
6393;BME280;3229;42.674;23.282;2023-05-24T06:29:16;94541.50;;;34.23;40.68
6393;BME280;3229;42.674;23.282;2023-05-24T06:31:44;94541.72;;;34.26;40.73
6393;BME280;3229;42.674;23.282;2023-05-24T06:34:13;94540.38;;;34.29;40.66
6393;BME280;3229;42.674;23.282;2023-05-24T06:36:41;94533.66;;;34.31;40.89
6393;BME280;3229;42.674;23.282;2023-05-24T06:39:08;94540.19;;;34.39;40.73
6393;BME280;3229;42.674;23.282;2023-05-24T06:41:35;94535.09;;;34.42;40.70
6393;BME280;3229;42.674;23.282;2023-05-24T06:44:03;94533.53;;;34.41;40.40
6393;BME280;3229;42.674;23.282;2023-05-24T06:46:30;94537.53;;;34.39;40.20
6393;BME280;3229;42.674;23.282;2023-05-24T06:48:57;94524.91;;;34.31;40.36
6393;BME280;3229;42.674;23.282;2023-05-24T06:51:25;94539.41;;;34.38;40.35
6393;BME280;3229;42.674;23.282;2023-05-24T06:53:52;94536.75;;;34.38;40.23
6393;BME280;3229;42.674;23.282;2023-05-24T06:56:19;94536.25;;;34.36;40.26
6393;BME280;3229;42.674;23.282;2023-05-24T06:58:46;94526.69;;;34.35;40.08
6393;BME280;3229;42.674;23.282;2023-05-24T07:01:13;94536.44;;;34.40;40.20
6393;BME280;3229;42.674;23.282;2023-05-24T07:03:40;94524.56;;;34.37;39.33
6393;BME280;3229;42.674;23.282;2023-05-24T07:06:07;94530.88;;;34.41;39.15
6393;BME280;3229;42.674;23.282;2023-05-24T07:08:39;94533.78;;;34.40;38.52
6393;BME280;3229;42.674;23.282;2023-05-24T07:11:07;94529.41;;;34.49;38.27
6393;BME280;3229;42.674;23.282;2023-05-24T07:13:35;94531.25;;;34.95;38.02
6393;BME280;3229;42.674;23.282;2023-05-24T07:16:02;94537.94;;;35.61;37.47
6393;BME280;3229;42.674;23.282;2023-05-24T07:18:29;94533.16;;;36.31;37.01
6393;BME280;3229;42.674;23.282;2023-05-24T07:20:56;94533.56;;;37.00;36.48
6393;BME280;3229;42.674;23.282;2023-05-24T07:23:23;94538.16;;;37.65;35.80
6393;BME280;3229;42.674;23.282;2023-05-24T07:25:51;94540.53;;;38.28;35.53
6393;BME280;3229;42.674;23.282;2023-05-24T07:28:18;94543.41;;;38.87;35.09
6393;BME280;3229;42.674;23.282;2023-05-24T07:30:45;94540.66;;;39.43;34.37
6393;BME280;3229;42.674;23.282;2023-05-24T07:33:12;94545.69;;;39.95;34.38
6393;BME280;3229;42.674;23.282;2023-05-24T07:35:39;94552.38;;;40.43;33.94
6393;BME280;3229;42.674;23.282;2023-05-24T07:38:06;94548.47;;;40.85;33.30
6393;BME280;3229;42.674;23.282;2023-05-24T07:40:33;94551.19;;;41.22;33.21
6393;BME280;3229;42.674;23.282;2023-05-24T07:43:01;94546.16;;;41.57;33.00
6393;BME280;3229;42.674;23.282;2023-05-24T07:45:28;94545.13;;;41.87;32.45
6393;BME280;3229;42.674;23.282;2023-05-24T07:47:55;94541.66;;;42.14;32.61
6393;BME280;3229;42.674;23.282;2023-05-24T07:50:22;94547.72;;;42.39;32.49
6393;BME280;3229;42.674;23.282;2023-05-24T07:52:49;94549.19;;;42.65;32.01
6393;BME280;3229;42.674;23.282;2023-05-24T07:55:16;94547.81;;;42.87;31.53
6393;BME280;3229;42.674;23.282;2023-05-24T07:57:42;94528.91;;;42.99;31.34
6393;BME280;3229;42.674;23.282;2023-05-24T08:00:12;94537.00;;;43.15;31.02
6393;BME280;3229;42.674;23.282;2023-05-24T08:02:40;94532.53;;;43.22;31.39
6393;BME280;3229;42.674;23.282;2023-05-24T08:05:07;94540.59;;;43.38;30.91
6393;BME280;3229;42.674;23.282;2023-05-24T08:07:36;94532.16;;;43.40;30.82
6393;BME280;3229;42.674;23.282;2023-05-24T08:10:03;94539.28;;;43.48;30.54
6393;BME280;3229;42.674;23.282;2023-05-24T08:12:31;94530.09;;;43.49;30.71
6393;BME280;3229;42.674;23.282;2023-05-24T08:14:58;94537.53;;;43.55;30.85
6393;BME280;3229;42.674;23.282;2023-05-24T08:17:26;94534.06;;;43.55;30.83
6393;BME280;3229;42.674;23.282;2023-05-24T08:19:54;94534.84;;;43.55;30.65
6393;BME280;3229;42.674;23.282;2023-05-24T08:22:20;94535.56;;;43.52;30.81
6393;BME280;3229;42.674;23.282;2023-05-24T08:24:47;94530.88;;;43.49;30.72
6393;BME280;3229;42.674;23.282;2023-05-24T08:27:14;94531.59;;;43.46;30.19
6393;BME280;3229;42.674;23.282;2023-05-24T08:29:41;94525.31;;;43.42;30.30
6393;BME280;3229;42.674;23.282;2023-05-24T08:32:08;94526.72;;;43.36;30.04
6393;BME280;3229;42.674;23.282;2023-05-24T08:34:36;94534.63;;;43.29;30.46
6393;BME280;3229;42.674;23.282;2023-05-24T08:37:03;94527.97;;;43.23;30.14
6393;BME280;3229;42.674;23.282;2023-05-24T08:39:30;94525.78;;;43.13;30.16
6393;BME280;3229;42.674;23.282;2023-05-24T08:41:57;94527.84;;;43.03;30.26
6393;BME280;3229;42.674;23.282;2023-05-24T08:44:25;94526.75;;;42.89;30.25
6393;BME280;3229;42.674;23.282;2023-05-24T08:46:52;94531.75;;;42.74;30.08
6393;BME280;3229;42.674;23.282;2023-05-24T08:49:19;94528.25;;;42.58;30.34
6393;BME280;3229;42.674;23.282;2023-05-24T08:51:48;94529.00;;;42.43;30.25
6393;BME280;3229;42.674;23.282;2023-05-24T08:54:18;94525.19;;;42.28;30.48
6393;BME280;3229;42.674;23.282;2023-05-24T08:56:46;94529.69;;;42.12;30.28
6393;BME280;3229;42.674;23.282;2023-05-24T08:59:13;94527.63;;;41.93;30.30
6393;BME280;3229;42.674;23.282;2023-05-24T09:01:43;94523.19;;;41.72;29.86
6393;BME280;3229;42.674;23.282;2023-05-24T09:04:12;94512.28;;;41.41;29.87
6393;BME280;3229;42.674;23.282;2023-05-24T09:06:39;94521.00;;;41.25;30.81
6393;BME280;3229;42.674;23.282;2023-05-24T09:09:08;94521.00;;;41.01;30.60
6393;BME280;3229;42.674;23.282;2023-05-24T09:11:36;94530.22;;;40.79;30.86
6393;BME280;3229;42.674;23.282;2023-05-24T09:14:05;94519.16;;;40.56;31.02
6393;BME280;3229;42.674;23.282;2023-05-24T09:16:32;94512.34;;;40.25;31.12
6393;BME280;3229;42.674;23.282;2023-05-24T09:18:58;94515.31;;;40.11;30.98
6393;BME280;3229;42.674;23.282;2023-05-24T09:21:25;94525.53;;;39.88;30.95
6393;BME280;3229;42.674;23.282;2023-05-24T09:23:54;94520.19;;;39.68;31.07
6393;BME280;3229;42.674;23.282;2023-05-24T09:26:22;94518.28;;;39.47;31.11
6393;BME280;3229;42.674;23.282;2023-05-24T09:28:53;94503.44;;;39.20;30.76
6393;BME280;3229;42.674;23.282;2023-05-24T09:31:31;94512.34;;;39.03;30.93
6393;BME280;3229;42.674;23.282;2023-05-24T09:33:58;94507.25;;;38.81;31.09
6393;BME280;3229;42.674;23.282;2023-05-24T09:36:26;94510.13;;;38.58;31.26
6393;BME280;3229;42.674;23.282;2023-05-24T09:39:05;94508.13;;;38.38;31.25
6393;BME280;3229;42.674;23.282;2023-05-24T09:41:35;94512.09;;;38.14;31.42
6393;BME280;3229;42.674;23.282;2023-05-24T09:44:02;94508.50;;;37.93;31.36
6393;BME280;3229;42.674;23.282;2023-05-24T09:46:34;94514.28;;;37.69;31.47
6393;BME280;3229;42.674;23.282;2023-05-24T09:49:02;94506.72;;;37.45;31.37
6393;BME280;3229;42.674;23.282;2023-05-24T09:51:31;94510.28;;;37.23;31.40
6393;BME280;3229;42.674;23.282;2023-05-24T09:54:02;94497.03;;;37.01;31.47
6393;BME280;3229;42.674;23.282;2023-05-24T09:56:32;94501.00;;;36.81;31.55
6393;BME280;3229;42.674;23.282;2023-05-24T09:59:04;94503.59;;;36.63;31.66
6393;BME280;3229;42.674;23.282;2023-05-24T10:01:32;94495.53;;;36.46;31.64
6393;BME280;3229;42.674;23.282;2023-05-24T10:04:00;94500.72;;;36.29;31.78
6393;BME280;3229;42.674;23.282;2023-05-24T10:06:32;94498.28;;;36.10;31.73
6393;BME280;3229;42.674;23.282;2023-05-24T10:09:02;94496.25;;;35.93;31.65
6393;BME280;3229;42.674;23.282;2023-05-24T10:11:31;94480.09;;;35.67;31.68
6393;BME280;3229;42.674;23.282;2023-05-24T10:13:58;94487.03;;;35.54;31.62
6393;BME280;3229;42.674;23.282;2023-05-24T10:16:26;94493.28;;;35.44;31.89
6393;BME280;3229;42.674;23.282;2023-05-24T10:18:53;94495.50;;;35.29;31.98
6393;BME280;3229;42.674;23.282;2023-05-24T10:21:22;94496.41;;;35.10;31.87
6393;BME280;3229;42.674;23.282;2023-05-24T10:23:52;94492.84;;;34.87;31.95
6393;BME280;3229;42.674;23.282;2023-05-24T10:26:23;94493.06;;;34.77;31.98
6393;BME280;3229;42.674;23.282;2023-05-24T10:28:54;94488.22;;;34.65;31.97
6393;BME280;3229;42.674;23.282;2023-05-24T10:31:30;94483.69;;;34.52;32.11
6393;BME280;3229;42.674;23.282;2023-05-24T10:34:00;94476.94;;;34.41;31.94
6393;BME280;3229;42.674;23.282;2023-05-24T10:36:29;94477.13;;;34.31;32.35
6393;BME280;3229;42.674;23.282;2023-05-24T10:38:57;94471.41;;;34.24;32.24
6393;BME280;3229;42.674;23.282;2023-05-24T10:41:24;94467.06;;;34.14;31.90
6393;BME280;3229;42.674;23.282;2023-05-24T10:43:52;94467.72;;;34.06;31.94
6393;BME280;3229;42.674;23.282;2023-05-24T10:46:19;94455.75;;;33.89;32.31
6393;BME280;3229;42.674;23.282;2023-05-24T10:49:00;94454.78;;;33.85;31.94
6393;BME280;3229;42.674;23.282;2023-05-24T10:51:34;94455.34;;;33.82;32.01
6393;BME280;3229;42.674;23.282;2023-05-24T10:54:13;94453.34;;;33.74;32.10
6393;BME280;3229;42.674;23.282;2023-05-24T10:56:40;94457.72;;;33.65;32.37
6393;BME280;3229;42.674;23.282;2023-05-24T10:59:08;94452.00;;;33.58;32.13
6393;BME280;3229;42.674;23.282;2023-05-24T11:01:35;94448.91;;;33.51;32.07
6393;BME280;3229;42.674;23.282;2023-05-24T11:04:10;94447.94;;;33.41;32.07
6393;BME280;3229;42.674;23.282;2023-05-24T11:06:47;94421.53;;;33.17;32.07
6393;BME280;3229;42.674;23.282;2023-05-24T11:09:16;94442.56;;;33.28;31.96
6393;BME280;3229;42.674;23.282;2023-05-24T11:11:45;94443.44;;;33.23;32.19
6393;BME280;3229;42.674;23.282;2023-05-24T11:14:17;94433.00;;;33.13;32.06
6393;BME280;3229;42.674;23.282;2023-05-24T11:16:45;94439.16;;;33.08;32.33
6393;BME280;3229;42.674;23.282;2023-05-24T11:19:18;94445.84;;;33.01;32.40
6393;BME280;3229;42.674;23.282;2023-05-24T11:21:46;94435.59;;;32.94;32.47
6393;BME280;3229;42.674;23.282;2023-05-24T11:24:15;94416.22;;;32.75;32.40
6393;BME280;3229;42.674;23.282;2023-05-24T11:26:43;94427.53;;;32.80;32.56
6393;BME280;3229;42.674;23.282;2023-05-24T11:29:12;94425.72;;;32.76;32.04
6393;BME280;3229;42.674;23.282;2023-05-24T11:31:46;94396.63;;;32.52;32.21
6393;BME280;3229;42.674;23.282;2023-05-24T11:34:13;94426.66;;;32.66;32.38
6393;BME280;3229;42.674;23.282;2023-05-24T11:36:42;94430.16;;;32.61;32.55
6393;BME280;3229;42.674;23.282;2023-05-24T11:39:09;94418.00;;;32.55;32.24
6393;BME280;3229;42.674;23.282;2023-05-24T11:41:36;94425.53;;;32.48;32.68
6393;BME280;3229;42.674;23.282;2023-05-24T11:44:04;94425.84;;;32.41;32.30
6393;BME280;3229;42.674;23.282;2023-05-24T11:46:31;94418.50;;;32.33;32.86
6393;BME280;3229;42.674;23.282;2023-05-24T11:48:59;94418.56;;;32.28;32.58
6393;BME280;3229;42.674;23.282;2023-05-24T11:51:26;94413.88;;;32.20;32.82
6393;BME280;3229;42.674;23.282;2023-05-24T11:53:56;94409.97;;;32.12;32.34
6393;BME280;3229;42.674;23.282;2023-05-24T11:56:23;94405.00;;;32.06;32.58
6393;BME280;3229;42.674;23.282;2023-05-24T11:58:58;94406.16;;;32.00;32.49
6393;BME280;3229;42.674;23.282;2023-05-24T12:01:30;94409.59;;;31.95;32.65
6393;BME280;3229;42.674;23.282;2023-05-24T12:03:57;94397.00;;;31.87;32.39
6393;BME280;3229;42.674;23.282;2023-05-24T12:06:33;94405.72;;;31.82;32.79
6393;BME280;3229;42.674;23.282;2023-05-24T12:09:01;94404.97;;;31.77;32.58
6393;BME280;3229;42.674;23.282;2023-05-24T12:11:30;94402.88;;;31.73;32.89
6393;BME280;3229;42.674;23.282;2023-05-24T12:13:57;94386.84;;;31.60;33.13
6393;BME280;3229;42.674;23.282;2023-05-24T12:16:24;94400.84;;;31.65;32.89
6393;BME280;3229;42.674;23.282;2023-05-24T12:18:54;94389.00;;;31.58;32.88
6393;BME280;3229;42.674;23.282;2023-05-24T12:21:21;94385.06;;;31.55;33.08
6393;BME280;3229;42.674;23.282;2023-05-24T12:23:47;94387.19;;;31.53;32.57
6393;BME280;3229;42.674;23.282;2023-05-24T12:26:17;94392.75;;;31.52;32.85
6393;BME280;3229;42.674;23.282;2023-05-24T12:28:46;94384.06;;;31.46;32.89
6393;BME280;3229;42.674;23.282;2023-05-24T12:31:13;94377.22;;;31.45;32.94
6393;BME280;3229;42.674;23.282;2023-05-24T12:33:41;94357.50;;;31.27;32.96
6393;BME280;3229;42.674;23.282;2023-05-24T12:36:09;94374.84;;;31.43;33.00
6393;BME280;3229;42.674;23.282;2023-05-24T12:38:37;94346.91;;;31.27;32.88
6393;BME280;3229;42.674;23.282;2023-05-24T12:41:05;94374.59;;;31.40;32.77
6393;BME280;3229;42.674;23.282;2023-05-24T12:43:33;94372.25;;;31.33;33.04
6393;BME280;3229;42.674;23.282;2023-05-24T12:46:01;94355.38;;;31.29;33.09
6393;BME280;3229;42.674;23.282;2023-05-24T12:48:28;94354.31;;;31.25;32.68
6393;BME280;3229;42.674;23.282;2023-05-24T12:50:55;94359.84;;;31.34;32.88
6393;BME280;3229;42.674;23.282;2023-05-24T12:53:22;94358.25;;;31.33;32.93
6393;BME280;3229;42.674;23.282;2023-05-24T12:55:50;94349.56;;;31.32;32.57
6393;BME280;3229;42.674;23.282;2023-05-24T12:58:20;94351.66;;;31.30;32.66
6393;BME280;3229;42.674;23.282;2023-05-24T13:00:48;94363.06;;;31.31;33.03
6393;BME280;3229;42.674;23.282;2023-05-24T13:03:16;94356.69;;;31.32;33.04
6393;BME280;3229;42.674;23.282;2023-05-24T13:05:43;94355.38;;;31.29;33.06
6393;BME280;3229;42.674;23.282;2023-05-24T13:08:10;94353.25;;;31.31;32.71
6393;BME280;3229;42.674;23.282;2023-05-24T13:10:38;94352.97;;;31.33;32.47
6393;BME280;3229;42.674;23.282;2023-05-24T13:13:05;94353.50;;;31.35;32.86
6393;BME280;3229;42.674;23.282;2023-05-24T13:15:32;94347.94;;;31.36;32.73